createdAt,value
2023-09-17T02:00:26.439Z,30.30
2023-09-17T02:02:54.529Z,34.58
2023-09-17T02:05:22.485Z,31.35
2023-09-17T02:07:49.474Z,32.80
2023-09-17T02:10:21.015Z,37.42
2023-09-17T02:12:48.514Z,38.80
2023-09-17T02:15:19.075Z,32.08
2023-09-17T02:17:45.749Z,26.48
2023-09-17T02:20:12.912Z,25.77
2023-09-17T02:22:41.320Z,23.73
2023-09-17T02:25:08.887Z,26.25
2023-09-17T02:27:35.550Z,25.55
2023-09-17T02:30:06.204Z,29.58
2023-09-17T02:32:32.950Z,26.23
2023-09-17T02:35:00.624Z,24.17
2023-09-17T02:37:27.755Z,23.17
2023-09-17T02:39:54.367Z,27.52
2023-09-17T02:42:21.595Z,25.42
2023-09-17T02:44:48.204Z,26.20
2023-09-17T02:47:14.990Z,27.77
2023-09-17T02:49:42.751Z,27.27
2023-09-17T02:52:09.664Z,33.35
2023-09-17T02:54:37.609Z,34.15
2023-09-17T02:57:07.009Z,30.73
2023-09-17T02:59:35.311Z,31.50
2023-09-17T03:02:01.854Z,29.40
2023-09-17T03:04:30.423Z,30.65
2023-09-17T03:07:00.155Z,32.08
2023-09-17T03:09:27.020Z,24.90
2023-09-17T03:11:53.805Z,25.73
2023-09-17T03:14:21.925Z,27.00
2023-09-17T03:16:49.592Z,27.67
2023-09-17T03:19:20.033Z,26.17
2023-09-17T03:21:47.065Z,27.65
2023-09-17T03:24:16.577Z,28.33
2023-09-17T03:26:43.811Z,26.77
2023-09-17T03:29:10.298Z,32.38
2023-09-17T03:31:38.175Z,34.30
2023-09-17T03:34:04.954Z,28.58
2023-09-17T03:36:31.968Z,33.58
2023-09-17T03:39:00.940Z,32.80
2023-09-17T03:41:29.771Z,27.67
2023-09-17T03:43:58.101Z,31.33
2023-09-17T03:46:24.737Z,30.75
2023-09-17T03:48:51.595Z,28.13
2023-09-17T03:51:18.519Z,28.45
2023-09-17T03:53:46.729Z,28.40
2023-09-17T03:56:13.799Z,28.40
2023-09-17T03:58:40.723Z,28.10
2023-09-17T04:01:09.708Z,28.65
2023-09-17T04:03:37.988Z,28.65
2023-09-17T04:06:04.762Z,27.40
2023-09-17T04:08:31.294Z,26.30
2023-09-17T04:10:57.828Z,29.25
2023-09-17T04:13:24.622Z,27.33
2023-09-17T04:15:52.171Z,31.92
2023-09-17T04:18:25.522Z,29.35
2023-09-17T04:20:52.728Z,29.95
2023-09-17T04:23:20.540Z,33.00
2023-09-17T04:25:47.036Z,27.77
2023-09-17T04:28:14.026Z,28.92
2023-09-17T04:30:41.069Z,32.55
2023-09-17T04:33:07.894Z,32.33
2023-09-17T04:35:34.362Z,29.90
2023-09-17T04:38:00.916Z,29.98
2023-09-17T04:40:30.033Z,27.33
2023-09-17T04:42:57.041Z,30.45
2023-09-17T04:45:35.588Z,31.35
2023-09-17T04:48:02.512Z,30.55
2023-09-17T04:50:29.581Z,28.08
2023-09-17T04:52:59.204Z,27.88
2023-09-17T04:55:26.720Z,29.05
2023-09-17T04:57:55.923Z,26.92
2023-09-17T05:00:22.617Z,27.75
2023-09-17T05:02:50.669Z,32.13
2023-09-17T05:05:20.581Z,32.17
2023-09-17T05:07:50.248Z,31.52
2023-09-17T05:10:19.921Z,32.17
2023-09-17T05:12:46.445Z,30.33
2023-09-17T05:15:13.368Z,30.80
2023-09-17T05:17:41.880Z,32.33
2023-09-17T05:20:09.207Z,30.73
2023-09-17T05:22:41.796Z,32.08
2023-09-17T05:25:09.475Z,29.85
2023-09-17T05:27:37.443Z,30.02
2023-09-17T05:30:05.311Z,30.73
2023-09-17T05:32:32.265Z,33.38
2023-09-17T05:35:05.817Z,29.27
2023-09-17T05:37:33.681Z,29.30
2023-09-17T05:40:01.471Z,32.20
2023-09-17T05:42:28.947Z,28.52
2023-09-17T05:44:55.492Z,28.60
2023-09-17T05:47:22.074Z,27.08
2023-09-17T05:49:49.369Z,27.83
2023-09-17T05:52:17.542Z,27.77
2023-09-17T05:54:44.817Z,29.48
2023-09-17T05:57:11.249Z,29.88
2023-09-17T05:59:37.748Z,27.10
2023-09-17T06:02:05.341Z,27.75
2023-09-17T06:04:32.548Z,25.20
2023-09-17T06:06:59.483Z,25.80
2023-09-17T06:09:26.400Z,25.52
2023-09-17T06:11:52.922Z,25.10
2023-09-17T06:14:19.893Z,25.70
2023-09-17T06:16:56.805Z,26.30
2023-09-17T06:19:25.774Z,26.30
2023-09-17T06:21:57.603Z,24.08
2023-09-17T06:24:25.189Z,24.23
2023-09-17T06:26:51.601Z,26.85
2023-09-17T06:29:18.574Z,25.38
2023-09-17T06:31:45.881Z,26.75
2023-09-17T06:34:13.578Z,30.20
2023-09-17T06:36:41.162Z,30.35
2023-09-17T06:39:08.827Z,29.63
2023-09-17T06:41:38.085Z,32.35
2023-09-17T06:44:05.661Z,37.38
2023-09-17T06:46:34.340Z,35.95
2023-09-17T06:49:01.709Z,40.83
2023-09-17T06:51:29.645Z,47.25
2023-09-17T06:53:56.996Z,51.67
2023-09-17T06:56:26.698Z,53.95
2023-09-17T06:58:54.227Z,55.50
2023-09-17T07:01:20.906Z,62.03
2023-09-17T07:03:49.924Z,66.65
2023-09-17T07:06:18.090Z,75.95
2023-09-17T07:08:45.457Z,78.03
2023-09-17T07:11:12.352Z,78.72
2023-09-17T07:13:39.883Z,82.15
2023-09-17T07:16:06.620Z,96.45
2023-09-17T07:18:33.157Z,95.22
2023-09-17T07:20:59.680Z,94.85
2023-09-17T07:23:28.285Z,99.38
2023-09-17T07:25:54.751Z,100.63
2023-09-17T07:28:22.131Z,93.68
2023-09-17T07:30:53.737Z,104.25
2023-09-17T07:33:21.100Z,100.00
2023-09-17T07:35:49.839Z,103.75
2023-09-17T07:38:17.757Z,99.90
2023-09-17T07:40:46.823Z,94.45
2023-09-17T07:43:13.306Z,107.45
2023-09-17T07:45:39.855Z,99.75
2023-09-17T07:48:06.796Z,106.63
2023-09-17T07:50:34.366Z,108.38
2023-09-17T07:53:01.185Z,104.13
2023-09-17T07:55:27.767Z,102.45
2023-09-17T07:57:54.470Z,105.72
2023-09-17T08:00:22.600Z,94.30
2023-09-17T08:02:50.366Z,96.75
2023-09-17T08:05:17.666Z,98.30
2023-09-17T08:07:47.078Z,95.00
2023-09-17T08:10:14.161Z,95.30
2023-09-17T08:12:40.847Z,85.80
2023-09-17T08:15:11.650Z,93.70
2023-09-17T08:17:39.587Z,96.70
2023-09-17T08:20:10.583Z,99.55
2023-09-17T08:22:41.879Z,101.93
2023-09-17T08:25:10.482Z,89.75
2023-09-17T08:27:37.115Z,90.45
2023-09-17T08:30:04.749Z,84.63
2023-09-17T08:32:31.529Z,84.25
2023-09-17T08:34:59.579Z,87.35
2023-09-17T08:37:28.138Z,82.88
2023-09-17T08:39:57.406Z,88.80
2023-09-17T08:42:27.724Z,85.82
2023-09-17T08:44:57.255Z,89.93
2023-09-17T08:47:24.830Z,90.70
2023-09-17T08:49:54.621Z,89.05
2023-09-17T08:52:21.941Z,92.75
2023-09-17T08:54:50.575Z,89.05
2023-09-17T08:57:21.676Z,94.70
2023-09-17T09:00:01.459Z,93.55
2023-09-17T09:02:32.845Z,82.45
2023-09-17T09:05:01.817Z,81.13
2023-09-17T09:07:30.676Z,71.68
2023-09-17T09:09:57.721Z,77.95
2023-09-17T09:12:25.809Z,87.20
2023-09-17T09:14:54.694Z,84.38
2023-09-17T09:17:21.400Z,84.65
2023-09-17T09:19:49.315Z,89.68
2023-09-17T09:22:15.753Z,88.18
2023-09-17T09:24:49.328Z,81.20
2023-09-17T09:27:17.449Z,82.32
2023-09-17T09:29:46.005Z,75.13
2023-09-17T09:32:13.487Z,75.28
2023-09-17T09:34:42.172Z,72.57
2023-09-17T09:37:13.744Z,76.25
2023-09-17T09:39:45.474Z,78.85
2023-09-17T09:42:14.368Z,67.97
2023-09-17T09:44:40.827Z,74.22
2023-09-17T09:47:07.895Z,73.30
2023-09-17T09:49:43.644Z,71.70
2023-09-17T09:52:13.923Z,73.70
2023-09-17T09:54:42.181Z,74.68
2023-09-17T09:57:13.064Z,64.10
2023-09-17T09:59:40.127Z,65.32
2023-09-17T10:02:07.148Z,62.92
2023-09-17T10:04:39.242Z,70.03
2023-09-17T10:07:06.243Z,65.88
2023-09-17T10:09:32.735Z,64.03
2023-09-17T10:12:01.520Z,59.40
2023-09-17T10:14:30.480Z,56.30
2023-09-17T10:16:59.316Z,58.78
2023-09-17T10:19:27.459Z,56.42
2023-09-17T10:21:54.455Z,48.38
2023-09-17T10:24:21.647Z,53.58
2023-09-17T10:26:51.677Z,57.95
2023-09-17T10:29:19.479Z,50.10
2023-09-17T10:31:48.696Z,53.35
2023-09-17T10:34:17.437Z,52.47
2023-09-17T10:36:53.828Z,53.72
2023-09-17T10:39:20.962Z,44.35
2023-09-17T10:41:49.960Z,53.58
2023-09-17T10:44:17.686Z,45.40
2023-09-17T10:46:46.669Z,54.78
2023-09-17T10:49:24.323Z,54.70
2023-09-17T10:51:52.975Z,46.63
2023-09-17T10:54:19.508Z,50.72
2023-09-17T10:56:47.713Z,48.22
2023-09-17T10:59:15.878Z,48.25
2023-09-17T11:01:45.357Z,50.17
2023-09-17T11:04:17.670Z,46.13
2023-09-17T11:06:45.934Z,48.90
2023-09-17T11:09:14.202Z,53.28
2023-09-17T11:11:42.076Z,52.38
2023-09-17T11:14:09.888Z,46.17
2023-09-17T11:16:37.604Z,46.42
2023-09-17T11:19:09.171Z,40.55
2023-09-17T11:21:37.300Z,46.22
2023-09-17T11:24:07.414Z,46.45
2023-09-17T11:26:37.040Z,40.83
2023-09-17T11:29:05.358Z,39.75
2023-09-17T11:31:34.209Z,40.05
2023-09-17T11:34:00.778Z,42.92
2023-09-17T11:36:27.631Z,39.55
2023-09-17T11:38:55.545Z,40.55
2023-09-17T11:41:34.850Z,42.42
2023-09-17T11:44:06.556Z,41.40
2023-09-17T11:46:35.682Z,40.80
2023-09-17T11:49:02.930Z,40.38
2023-09-17T11:51:34.098Z,40.80
2023-09-17T11:54:09.812Z,43.13
2023-09-17T11:56:47.142Z,38.00
2023-09-17T11:59:19.770Z,42.42
2023-09-17T12:01:53.192Z,37.95
2023-09-17T12:04:21.370Z,40.42
2023-09-17T12:06:49.059Z,37.63
2023-09-17T12:09:24.784Z,39.67
2023-09-17T12:11:52.502Z,39.35
2023-09-17T12:14:20.977Z,35.90
2023-09-17T12:16:49.090Z,37.53
2023-09-17T12:19:18.579Z,39.65
2023-09-17T12:21:52.582Z,44.67
2023-09-17T12:24:26.378Z,42.15
2023-09-17T12:27:19.201Z,44.33
2023-09-17T12:29:50.613Z,42.70
2023-09-17T12:32:21.130Z,44.75
2023-09-17T12:34:50.446Z,52.95
2023-09-17T12:37:21.694Z,45.05
2023-09-17T12:39:53.872Z,45.97
2023-09-17T12:42:22.706Z,46.42
2023-09-17T12:47:41.998Z,42.45
2023-09-17T12:50:09.834Z,45.33
2023-09-17T12:52:37.197Z,49.53
2023-09-17T12:55:05.592Z,46.80
2023-09-17T12:57:33.544Z,45.35
2023-09-17T13:00:02.941Z,53.05
2023-09-17T13:02:30.796Z,45.38
2023-09-17T13:04:57.948Z,45.25
2023-09-17T13:07:25.951Z,43.38
2023-09-17T13:09:59.762Z,47.65
2023-09-17T13:12:29.078Z,47.38
2023-09-17T13:15:01.463Z,44.42
2023-09-17T13:17:30.528Z,42.53
2023-09-17T13:19:57.589Z,44.50
2023-09-17T13:22:25.681Z,41.40
2023-09-17T13:24:53.159Z,41.20
2023-09-17T13:27:25.592Z,39.33
2023-09-17T13:29:57.061Z,40.40
2023-09-17T13:32:26.603Z,40.83
2023-09-17T13:34:53.336Z,40.20
2023-09-17T13:37:22.117Z,34.13
2023-09-17T13:39:54.043Z,38.88
2023-09-17T13:42:22.784Z,45.25
2023-09-17T13:44:49.586Z,40.63
2023-09-17T13:47:17.660Z,43.67
2023-09-17T13:49:45.722Z,42.67
2023-09-17T13:52:13.078Z,42.25
2023-09-17T13:54:40.946Z,41.72
2023-09-17T13:57:08.527Z,50.58
2023-09-17T13:59:35.928Z,45.78
2023-09-17T14:02:06.068Z,46.88
2023-09-17T14:04:34.352Z,48.33
2023-09-17T14:07:01.114Z,48.40
2023-09-17T14:09:27.595Z,51.10
2023-09-17T14:11:54.119Z,47.53
2023-09-17T14:14:23.345Z,46.55
2023-09-17T14:16:49.792Z,43.38
2023-09-17T14:19:19.851Z,42.85
2023-09-17T14:21:47.144Z,44.22
2023-09-17T14:24:13.822Z,45.30
2023-09-17T14:26:41.763Z,40.60
2023-09-17T14:29:09.584Z,46.35
2023-09-17T14:31:39.436Z,38.83
2023-09-17T14:34:09.541Z,40.72
2023-09-17T14:36:37.790Z,42.92
2023-09-17T14:39:05.458Z,37.60
2023-09-17T14:41:33.110Z,35.78
2023-09-17T14:44:01.761Z,37.13
2023-09-17T14:46:29.962Z,39.90
2023-09-17T14:48:57.512Z,39.97
2023-09-17T14:51:25.539Z,35.55
2023-09-17T14:53:52.316Z,41.97
2023-09-17T14:56:18.802Z,41.80
2023-09-17T14:58:45.364Z,33.55
2023-09-17T15:01:17.575Z,39.17
2023-09-17T15:03:53.237Z,42.33
2023-09-17T15:06:21.140Z,41.33
2023-09-17T15:08:49.938Z,42.85
2023-09-17T15:11:17.524Z,45.47
2023-09-17T15:13:44.927Z,47.63
2023-09-17T15:16:11.595Z,50.70
2023-09-17T15:18:38.036Z,48.30
2023-09-17T15:21:06.223Z,49.92
2023-09-17T15:23:34.300Z,50.05
2023-09-17T15:26:00.976Z,48.42
2023-09-17T15:28:29.503Z,49.42
2023-09-17T15:30:56.818Z,46.60
2023-09-17T15:33:28.971Z,52.70
2023-09-17T15:35:56.130Z,50.80
2023-09-17T15:38:25.508Z,53.38
2023-09-17T15:40:52.786Z,56.13
2023-09-17T15:43:19.829Z,56.55
2023-09-17T15:45:46.393Z,57.05
2023-09-17T15:48:15.717Z,56.65
2023-09-17T15:50:42.243Z,62.63
2023-09-17T15:53:08.933Z,60.13
2023-09-17T15:55:35.780Z,57.35
2023-09-17T15:58:05.790Z,58.10
2023-09-17T16:00:41.063Z,62.47
2023-09-17T16:03:08.139Z,69.82
2023-09-17T16:05:36.997Z,73.55
2023-09-17T16:08:03.566Z,67.38
2023-09-17T16:10:31.659Z,70.35
2023-09-17T16:12:58.370Z,72.03
2023-09-17T16:15:25.887Z,69.60
2023-09-17T16:17:53.846Z,69.72
2023-09-17T16:20:26.617Z,75.15
2023-09-17T16:22:53.239Z,75.38
2023-09-17T16:25:21.259Z,63.85
2023-09-17T16:27:47.656Z,74.35
2023-09-17T16:30:14.835Z,68.22
2023-09-17T16:32:41.757Z,69.60
2023-09-17T16:35:09.930Z,69.38
2023-09-17T16:37:40.729Z,69.15
2023-09-17T16:40:11.954Z,70.43
2023-09-17T16:42:38.698Z,71.18
2023-09-17T16:45:06.089Z,78.55
2023-09-17T16:47:33.130Z,79.85
2023-09-17T16:50:02.637Z,78.05
2023-09-17T16:52:29.423Z,73.65
2023-09-17T16:54:56.810Z,77.45
2023-09-17T16:57:25.661Z,73.05
2023-09-17T16:59:53.457Z,81.25
2023-09-17T17:02:24.901Z,80.18
2023-09-17T17:04:56.054Z,88.40
2023-09-17T17:07:22.577Z,87.55
2023-09-17T17:09:49.049Z,87.93
2023-09-17T17:12:19.346Z,84.95
2023-09-17T17:14:48.070Z,84.78
2023-09-17T17:17:14.557Z,90.40
2023-09-17T17:19:41.083Z,86.63
2023-09-17T17:22:07.496Z,91.60
2023-09-17T17:24:34.339Z,91.80
2023-09-17T17:27:00.992Z,94.32
2023-09-17T17:29:27.426Z,95.25
2023-09-17T17:31:54.829Z,99.90
2023-09-17T17:34:23.501Z,102.53
2023-09-17T17:36:52.775Z,106.72
2023-09-17T17:39:21.554Z,108.03
2023-09-17T17:41:49.165Z,110.70
2023-09-17T17:44:16.906Z,104.22
2023-09-17T17:46:43.830Z,103.88
2023-09-17T17:49:10.314Z,109.85
2023-09-17T17:51:38.107Z,108.68
2023-09-17T17:54:05.231Z,115.80
2023-09-17T17:56:33.036Z,119.47
2023-09-17T17:59:02.505Z,129.07
2023-09-17T18:01:29.905Z,131.98
2023-09-17T18:03:57.894Z,134.45
2023-09-17T18:06:26.269Z,132.23
2023-09-17T18:08:54.156Z,138.10
2023-09-17T18:11:21.579Z,140.32
2023-09-17T18:13:49.221Z,142.38
2023-09-17T18:16:15.794Z,138.48
2023-09-17T18:18:42.228Z,138.52
2023-09-17T18:21:09.030Z,145.60
2023-09-17T18:23:38.710Z,145.07
2023-09-17T18:26:05.250Z,151.35
2023-09-17T18:28:32.261Z,151.23
2023-09-17T18:31:01.019Z,151.98
2023-09-17T18:33:31.481Z,154.73
2023-09-17T18:36:01.302Z,152.68
2023-09-17T18:38:30.205Z,157.43
2023-09-17T18:41:00.097Z,162.15
2023-09-17T18:43:26.863Z,159.60
2023-09-17T18:45:53.295Z,162.23
2023-09-17T18:48:20.911Z,162.52
2023-09-17T18:50:50.589Z,168.02
2023-09-17T18:53:20.323Z,167.93
2023-09-17T18:55:46.894Z,167.98
2023-09-17T18:58:13.456Z,167.15
2023-09-17T19:00:43.008Z,169.00
2023-09-17T19:03:09.794Z,171.68
2023-09-17T19:05:38.797Z,174.35
2023-09-17T19:08:05.526Z,175.48
2023-09-17T19:10:32.512Z,176.63
2023-09-17T19:12:58.844Z,179.57
2023-09-17T19:15:25.614Z,178.73
2023-09-17T19:17:53.717Z,182.70
2023-09-17T19:20:20.622Z,177.95
2023-09-17T19:22:47.380Z,184.48
2023-09-17T19:25:15.334Z,185.18
2023-09-17T19:27:45.686Z,175.48
2023-09-17T19:30:18.524Z,178.73
2023-09-17T19:32:45.267Z,182.40
2023-09-17T19:35:12.963Z,186.80
2023-09-17T19:37:39.805Z,185.35
2023-09-17T19:40:07.965Z,186.27
2023-09-17T19:42:34.418Z,187.27
2023-09-17T19:45:01.921Z,185.35
2023-09-17T19:47:30.023Z,177.07
2023-09-17T19:50:01.407Z,176.40
2023-09-17T19:52:27.978Z,181.73
2023-09-17T19:54:54.697Z,183.68
2023-09-17T19:57:22.966Z,189.93
2023-09-17T19:59:52.176Z,194.63
2023-09-17T20:02:22.814Z,190.18
2023-09-17T20:04:51.612Z,190.90
2023-09-17T20:07:26.318Z,181.73
2023-09-17T20:09:54.559Z,185.73
2023-09-17T20:12:20.965Z,194.00
2023-09-17T20:14:54.928Z,188.93
2023-09-17T20:17:21.388Z,191.52
2023-09-17T20:19:47.933Z,190.25
2023-09-17T20:22:14.994Z,187.25
2023-09-17T20:24:48.341Z,185.65
2023-09-17T20:27:14.934Z,188.87
2023-09-17T20:29:44.944Z,190.77
2023-09-17T20:32:11.759Z,184.93
2023-09-17T20:34:40.624Z,190.07
2023-09-17T20:37:09.158Z,193.07
2023-09-17T20:39:36.566Z,196.13
2023-09-17T20:42:05.312Z,191.48
2023-09-17T20:44:49.829Z,187.90
2023-09-17T20:47:18.229Z,189.57
2023-09-17T20:49:45.736Z,204.93
2023-09-17T20:52:12.945Z,194.98
2023-09-17T20:54:39.736Z,196.00
2023-09-17T20:57:06.253Z,188.07
2023-09-17T20:59:34.159Z,189.38
2023-09-17T21:02:07.188Z,193.57
2023-09-17T21:04:35.596Z,193.27
2023-09-17T21:07:02.093Z,186.23
2023-09-17T21:09:31.939Z,186.13
2023-09-17T21:11:59.743Z,186.00
2023-09-17T21:14:27.913Z,189.05
2023-09-17T21:16:59.096Z,193.57
2023-09-17T21:19:25.790Z,196.20
2023-09-17T21:21:53.249Z,186.00
2023-09-17T21:24:21.123Z,187.45
2023-09-17T21:26:54.856Z,192.52
2023-09-17T21:29:22.088Z,184.68
2023-09-17T21:31:49.477Z,192.68
2023-09-17T21:34:15.891Z,192.20
2023-09-17T21:36:42.314Z,196.43
2023-09-17T21:39:08.869Z,197.10
2023-09-17T21:41:35.780Z,194.25
2023-09-17T21:44:03.872Z,195.30
2023-09-17T21:46:30.729Z,194.60
2023-09-17T21:48:57.709Z,204.73
2023-09-17T21:51:25.719Z,200.40
2023-09-17T21:53:53.306Z,201.07
2023-09-17T21:56:21.224Z,211.80
2023-09-17T21:58:47.890Z,209.25
2023-09-17T22:01:14.421Z,208.95
2023-09-17T22:03:42.880Z,205.20
2023-09-17T22:06:09.942Z,215.05
2023-09-17T22:08:37.770Z,211.27
2023-09-17T22:11:05.062Z,220.98
2023-09-17T22:13:31.892Z,214.50
2023-09-17T22:15:58.312Z,215.25
2023-09-17T22:18:26.229Z,211.15
2023-09-17T22:21:07.698Z,214.65
2023-09-17T22:23:34.933Z,216.30
2023-09-17T22:26:01.839Z,209.60
2023-09-17T22:28:36.782Z,204.55
2023-09-17T22:31:10.349Z,207.25
2023-09-17T22:33:37.638Z,209.30
2023-09-17T22:36:09.810Z,212.15
2023-09-17T22:38:37.158Z,208.43
2023-09-17T22:41:09.898Z,203.57
2023-09-17T22:43:37.608Z,199.38
2023-09-17T22:46:06.203Z,193.38
2023-09-17T22:48:36.378Z,201.50
2023-09-17T22:51:04.982Z,202.25
2023-09-17T22:53:34.146Z,199.07
2023-09-17T22:56:01.866Z,193.55
2023-09-17T22:58:30.029Z,195.88
2023-09-17T23:00:59.401Z,198.15
2023-09-17T23:03:26.697Z,201.80
2023-09-17T23:05:53.658Z,197.32
2023-09-17T23:08:21.603Z,183.23
2023-09-17T23:10:49.102Z,186.93
2023-09-17T23:13:17.391Z,197.27
2023-09-17T23:15:46.233Z,204.95
2023-09-17T23:18:15.786Z,205.32
2023-09-17T23:20:42.342Z,206.63
2023-09-17T23:23:10.228Z,209.60
2023-09-17T23:25:38.219Z,209.90
2023-09-17T23:28:07.683Z,209.85
2023-09-17T23:30:35.320Z,205.07
2023-09-17T23:33:01.982Z,204.95
2023-09-17T23:35:29.592Z,199.13
2023-09-17T23:37:56.915Z,203.15
2023-09-17T23:40:25.685Z,208.05
2023-09-17T23:42:52.769Z,202.40
2023-09-17T23:45:20.331Z,212.73
2023-09-17T23:47:47.521Z,206.48
2023-09-17T23:50:15.755Z,211.18
2023-09-17T23:52:43.087Z,199.60
2023-09-17T23:55:10.938Z,195.88
2023-09-17T23:57:37.400Z,196.95
